sensor_id;sensor_type;location;lat;lon;timestamp;temperature;humidity
4487;DHT22;2256;48.740;9.106;2023-10-13T00:01:21;18.60;92.30
4487;DHT22;2256;48.740;9.106;2023-10-13T00:03:49;18.60;92.30
4487;DHT22;2256;48.740;9.106;2023-10-13T00:06:18;18.60;92.20
4487;DHT22;2256;48.740;9.106;2023-10-13T00:08:44;18.60;92.20
4487;DHT22;2256;48.740;9.106;2023-10-13T00:11:12;18.50;92.10
4487;DHT22;2256;48.740;9.106;2023-10-13T00:13:39;18.40;92.20
4487;DHT22;2256;48.740;9.106;2023-10-13T00:16:17;18.40;92.20
4487;DHT22;2256;48.740;9.106;2023-10-13T00:18:47;18.30;92.10
4487;DHT22;2256;48.740;9.106;2023-10-13T00:21:14;18.30;92.20
4487;DHT22;2256;48.740;9.106;2023-10-13T00:23:46;18.20;92.30
4487;DHT22;2256;48.740;9.106;2023-10-13T00:26:19;18.10;92.20
4487;DHT22;2256;48.740;9.106;2023-10-13T00:28:50;18.10;92.40
4487;DHT22;2256;48.740;9.106;2023-10-13T00:31:26;18.00;92.30
4487;DHT22;2256;48.740;9.106;2023-10-13T00:33:57;17.90;92.50
4487;DHT22;2256;48.740;9.106;2023-10-13T00:36:29;17.80;92.60
4487;DHT22;2256;48.740;9.106;2023-10-13T00:38:57;17.80;92.60
4487;DHT22;2256;48.740;9.106;2023-10-13T00:41:24;17.80;92.70
4487;DHT22;2256;48.740;9.106;2023-10-13T00:44:14;17.60;92.80
4487;DHT22;2256;48.740;9.106;2023-10-13T00:46:44;17.60;92.90
4487;DHT22;2256;48.740;9.106;2023-10-13T00:49:11;17.50;92.90
4487;DHT22;2256;48.740;9.106;2023-10-13T00:51:41;17.50;93.00
4487;DHT22;2256;48.740;9.106;2023-10-13T00:54:13;17.40;93.00
4487;DHT22;2256;48.740;9.106;2023-10-13T00:56:39;17.40;93.00
4487;DHT22;2256;48.740;9.106;2023-10-13T00:59:13;17.40;93.10
4487;DHT22;2256;48.740;9.106;2023-10-13T01:01:39;17.40;93.20
4487;DHT22;2256;48.740;9.106;2023-10-13T01:04:10;17.40;93.20
4487;DHT22;2256;48.740;9.106;2023-10-13T01:06:38;17.30;93.30
4487;DHT22;2256;48.740;9.106;2023-10-13T01:09:06;17.30;93.40
4487;DHT22;2256;48.740;9.106;2023-10-13T01:11:40;17.30;93.50
4487;DHT22;2256;48.740;9.106;2023-10-13T01:14:08;17.30;93.50
4487;DHT22;2256;48.740;9.106;2023-10-13T01:16:36;17.30;93.50
4487;DHT22;2256;48.740;9.106;2023-10-13T01:19:05;17.20;93.60
4487;DHT22;2256;48.740;9.106;2023-10-13T01:21:33;17.20;93.60
4487;DHT22;2256;48.740;9.106;2023-10-13T01:24:02;17.30;93.60
4487;DHT22;2256;48.740;9.106;2023-10-13T01:26:33;17.20;93.80
4487;DHT22;2256;48.740;9.106;2023-10-13T01:29:04;17.20;93.70
4487;DHT22;2256;48.740;9.106;2023-10-13T01:31:40;17.30;93.70
4487;DHT22;2256;48.740;9.106;2023-10-13T01:34:13;17.20;93.70
4487;DHT22;2256;48.740;9.106;2023-10-13T01:36:45;17.30;93.70
4487;DHT22;2256;48.740;9.106;2023-10-13T01:39:12;17.30;93.70
4487;DHT22;2256;48.740;9.106;2023-10-13T01:41:42;17.20;93.70
4487;DHT22;2256;48.740;9.106;2023-10-13T01:44:08;17.20;93.70
4487;DHT22;2256;48.740;9.106;2023-10-13T01:46:37;17.30;93.80
4487;DHT22;2256;48.740;9.106;2023-10-13T01:49:03;17.30;93.70
4487;DHT22;2256;48.740;9.106;2023-10-13T01:51:30;17.20;93.90
4487;DHT22;2256;48.740;9.106;2023-10-13T01:53:56;17.20;94.00
4487;DHT22;2256;48.740;9.106;2023-10-13T01:56:24;17.00;94.00
4487;DHT22;2256;48.740;9.106;2023-10-13T01:58:51;17.00;94.10
4487;DHT22;2256;48.740;9.106;2023-10-13T02:01:19;17.00;94.20
4487;DHT22;2256;48.740;9.106;2023-10-13T02:03:52;17.00;94.20
4487;DHT22;2256;48.740;9.106;2023-10-13T02:06:27;17.00;94.20
4487;DHT22;2256;48.740;9.106;2023-10-13T02:08:58;17.00;94.20
4487;DHT22;2256;48.740;9.106;2023-10-13T02:11:32;17.00;94.20
4487;DHT22;2256;48.740;9.106;2023-10-13T02:13:59;17.00;94.20
4487;DHT22;2256;48.740;9.106;2023-10-13T02:16:25;17.00;94.20
4487;DHT22;2256;48.740;9.106;2023-10-13T02:18:53;16.90;94.30
4487;DHT22;2256;48.740;9.106;2023-10-13T02:21:19;16.80;94.40
4487;DHT22;2256;48.740;9.106;2023-10-13T02:23:45;16.80;94.40
4487;DHT22;2256;48.740;9.106;2023-10-13T02:26:25;16.70;94.50
4487;DHT22;2256;48.740;9.106;2023-10-13T02:28:59;16.70;94.40
4487;DHT22;2256;48.740;9.106;2023-10-13T02:31:27;16.80;94.40
4487;DHT22;2256;48.740;9.106;2023-10-13T02:33:54;16.80;94.40
4487;DHT22;2256;48.740;9.106;2023-10-13T02:36:21;16.80;94.30
4487;DHT22;2256;48.740;9.106;2023-10-13T02:39:02;16.70;94.30
4487;DHT22;2256;48.740;9.106;2023-10-13T02:41:33;16.70;94.40
4487;DHT22;2256;48.740;9.106;2023-10-13T02:44:05;16.70;94.30
4487;DHT22;2256;48.740;9.106;2023-10-13T02:46:32;16.70;94.40
4487;DHT22;2256;48.740;9.106;2023-10-13T02:49:01;16.80;94.40
4487;DHT22;2256;48.740;9.106;2023-10-13T02:51:35;16.70;94.40
4487;DHT22;2256;48.740;9.106;2023-10-13T02:54:03;16.70;94.50
4487;DHT22;2256;48.740;9.106;2023-10-13T02:56:36;16.60;94.50
4487;DHT22;2256;48.740;9.106;2023-10-13T02:59:03;16.60;94.50
4487;DHT22;2256;48.740;9.106;2023-10-13T03:01:32;16.70;94.50
4487;DHT22;2256;48.740;9.106;2023-10-13T03:04:00;16.60;94.50
4487;DHT22;2256;48.740;9.106;2023-10-13T03:06:29;16.60;94.60
4487;DHT22;2256;48.740;9.106;2023-10-13T03:08:58;16.50;94.70
4487;DHT22;2256;48.740;9.106;2023-10-13T03:11:39;16.60;94.70
4487;DHT22;2256;48.740;9.106;2023-10-13T03:14:09;16.60;94.60
4487;DHT22;2256;48.740;9.106;2023-10-13T03:16:49;16.50;94.60
4487;DHT22;2256;48.740;9.106;2023-10-13T03:19:15;16.50;94.70
4487;DHT22;2256;48.740;9.106;2023-10-13T03:21:44;16.50;94.80
4487;DHT22;2256;48.740;9.106;2023-10-13T03:24:13;16.50;94.80
4487;DHT22;2256;48.740;9.106;2023-10-13T03:26:40;16.40;94.80
4487;DHT22;2256;48.740;9.106;2023-10-13T03:29:11;16.40;94.90
4487;DHT22;2256;48.740;9.106;2023-10-13T03:31:47;16.40;94.90
4487;DHT22;2256;48.740;9.106;2023-10-13T03:34:31;16.40;94.90
4487;DHT22;2256;48.740;9.106;2023-10-13T03:37:00;16.30;95.10
4487;DHT22;2256;48.740;9.106;2023-10-13T03:39:36;16.20;95.10
4487;DHT22;2256;48.740;9.106;2023-10-13T03:42:03;16.20;95.20
4487;DHT22;2256;48.740;9.106;2023-10-13T03:44:32;16.20;95.30
4487;DHT22;2256;48.740;9.106;2023-10-13T03:47:03;16.10;95.40
4487;DHT22;2256;48.740;9.106;2023-10-13T03:49:43;16.00;95.50
4487;DHT22;2256;48.740;9.106;2023-10-13T03:52:10;16.00;95.60
4487;DHT22;2256;48.740;9.106;2023-10-13T03:54:39;16.00;95.50
4487;DHT22;2256;48.740;9.106;2023-10-13T03:57:06;16.00;95.40
4487;DHT22;2256;48.740;9.106;2023-10-13T03:59:38;16.10;95.30
4487;DHT22;2256;48.740;9.106;2023-10-13T04:02:06;16.10;95.30
4487;DHT22;2256;48.740;9.106;2023-10-13T04:04:43;16.20;95.10
4487;DHT22;2256;48.740;9.106;2023-10-13T04:07:14;16.20;95.10
4487;DHT22;2256;48.740;9.106;2023-10-13T04:10:05;16.20;95.10
4487;DHT22;2256;48.740;9.106;2023-10-13T04:12:49;16.20;95.10
4487;DHT22;2256;48.740;9.106;2023-10-13T04:15:35;16.20;95.10
4487;DHT22;2256;48.740;9.106;2023-10-13T04:18:27;16.20;95.00
4487;DHT22;2256;48.740;9.106;2023-10-13T04:20:59;16.30;94.90
4487;DHT22;2256;48.740;9.106;2023-10-13T04:23:44;16.40;94.80
4487;DHT22;2256;48.740;9.106;2023-10-13T04:26:25;16.30;94.70
4487;DHT22;2256;48.740;9.106;2023-10-13T04:29:02;16.30;94.70
4487;DHT22;2256;48.740;9.106;2023-10-13T04:31:37;16.40;94.50
4487;DHT22;2256;48.740;9.106;2023-10-13T04:34:23;16.40;94.50
4487;DHT22;2256;48.740;9.106;2023-10-13T04:36:54;16.40;94.40
4487;DHT22;2256;48.740;9.106;2023-10-13T04:39:37;16.50;94.40
4487;DHT22;2256;48.740;9.106;2023-10-13T04:42:04;16.50;94.30
4487;DHT22;2256;48.740;9.106;2023-10-13T04:44:39;16.50;94.30
4487;DHT22;2256;48.740;9.106;2023-10-13T04:47:15;16.50;94.30
4487;DHT22;2256;48.740;9.106;2023-10-13T04:49:47;16.60;94.20
4487;DHT22;2256;48.740;9.106;2023-10-13T04:52:17;16.60;94.10
4487;DHT22;2256;48.740;9.106;2023-10-13T04:55:11;16.50;94.20
4487;DHT22;2256;48.740;9.106;2023-10-13T04:57:58;16.50;94.20
4487;DHT22;2256;48.740;9.106;2023-10-13T05:00:36;16.40;94.30
4487;DHT22;2256;48.740;9.106;2023-10-13T05:03:22;16.30;94.40
4487;DHT22;2256;48.740;9.106;2023-10-13T05:06:18;16.30;94.40
4487;DHT22;2256;48.740;9.106;2023-10-13T05:09:05;16.30;94.20
4487;DHT22;2256;48.740;9.106;2023-10-13T05:11:49;16.50;94.10
4487;DHT22;2256;48.740;9.106;2023-10-13T05:14:34;16.60;94.10
4487;DHT22;2256;48.740;9.106;2023-10-13T05:17:18;16.70;93.90
4487;DHT22;2256;48.740;9.106;2023-10-13T05:20:08;16.80;93.70
4487;DHT22;2256;48.740;9.106;2023-10-13T05:22:52;16.90;93.60
4487;DHT22;2256;48.740;9.106;2023-10-13T05:25:37;16.80;93.80
4487;DHT22;2256;48.740;9.106;2023-10-13T05:28:21;16.70;93.80
4487;DHT22;2256;48.740;9.106;2023-10-13T05:31:06;16.70;93.90
4487;DHT22;2256;48.740;9.106;2023-10-13T05:33:50;16.60;94.10
4487;DHT22;2256;48.740;9.106;2023-10-13T05:36:36;16.50;94.30
4487;DHT22;2256;48.740;9.106;2023-10-13T05:39:20;16.40;94.30
4487;DHT22;2256;48.740;9.106;2023-10-13T05:42:05;16.30;94.50
4487;DHT22;2256;48.740;9.106;2023-10-13T05:44:49;16.30;94.50
4487;DHT22;2256;48.740;9.106;2023-10-13T05:47:49;16.30;94.60
4487;DHT22;2256;48.740;9.106;2023-10-13T05:50:27;16.30;94.70
4487;DHT22;2256;48.740;9.106;2023-10-13T05:53:11;16.20;94.80
4487;DHT22;2256;48.740;9.106;2023-10-13T05:56:01;16.10;95.00
4487;DHT22;2256;48.740;9.106;2023-10-13T05:58:45;16.20;95.00
4487;DHT22;2256;48.740;9.106;2023-10-13T06:01:29;16.30;94.90
4487;DHT22;2256;48.740;9.106;2023-10-13T06:04:13;16.30;94.80
4487;DHT22;2256;48.740;9.106;2023-10-13T06:06:57;16.50;95.00
4487;DHT22;2256;48.740;9.106;2023-10-13T06:09:44;16.60;94.60
4487;DHT22;2256;48.740;9.106;2023-10-13T06:12:28;16.60;94.50
4487;DHT22;2256;48.740;9.106;2023-10-13T06:15:12;16.70;94.50
4487;DHT22;2256;48.740;9.106;2023-10-13T06:17:57;16.80;94.40
4487;DHT22;2256;48.740;9.106;2023-10-13T06:20:41;17.00;94.10
4487;DHT22;2256;48.740;9.106;2023-10-13T06:23:25;17.00;94.00
4487;DHT22;2256;48.740;9.106;2023-10-13T06:26:11;17.10;93.90
4487;DHT22;2256;48.740;9.106;2023-10-13T06:28:55;17.20;93.60
4487;DHT22;2256;48.740;9.106;2023-10-13T06:31:22;17.30;93.60
4487;DHT22;2256;48.740;9.106;2023-10-13T06:33:51;17.50;93.30
4487;DHT22;2256;48.740;9.106;2023-10-13T06:36:20;17.60;93.20
4487;DHT22;2256;48.740;9.106;2023-10-13T06:38:47;17.70;93.00
4487;DHT22;2256;48.740;9.106;2023-10-13T06:41:22;17.80;93.00
4487;DHT22;2256;48.740;9.106;2023-10-13T06:43:56;17.80;92.90
4487;DHT22;2256;48.740;9.106;2023-10-13T06:46:27;17.90;92.90
4487;DHT22;2256;48.740;9.106;2023-10-13T06:48:54;18.00;92.70
4487;DHT22;2256;48.740;9.106;2023-10-13T06:51:25;18.10;92.50
4487;DHT22;2256;48.740;9.106;2023-10-13T06:53:56;18.10;92.30
4487;DHT22;2256;48.740;9.106;2023-10-13T06:56:24;18.20;92.30
4487;DHT22;2256;48.740;9.106;2023-10-13T06:58:55;18.10;92.30
4487;DHT22;2256;48.740;9.106;2023-10-13T07:01:25;18.20;92.20
4487;DHT22;2256;48.740;9.106;2023-10-13T07:03:52;18.30;92.30
4487;DHT22;2256;48.740;9.106;2023-10-13T07:06:19;18.40;92.10
4487;DHT22;2256;48.740;9.106;2023-10-13T07:08:46;18.50;92.10
4487;DHT22;2256;48.740;9.106;2023-10-13T07:11:18;18.60;92.00
4487;DHT22;2256;48.740;9.106;2023-10-13T07:14:00;18.70;91.90
4487;DHT22;2256;48.740;9.106;2023-10-13T07:16:36;18.90;91.70
4487;DHT22;2256;48.740;9.106;2023-10-13T07:19:04;19.00;91.50
4487;DHT22;2256;48.740;9.106;2023-10-13T07:21:32;18.90;91.60
4487;DHT22;2256;48.740;9.106;2023-10-13T07:23:59;18.80;91.70
4487;DHT22;2256;48.740;9.106;2023-10-13T07:26:37;18.80;91.60
4487;DHT22;2256;48.740;9.106;2023-10-13T07:29:09;18.90;91.60
4487;DHT22;2256;48.740;9.106;2023-10-13T07:31:36;18.90;91.50
4487;DHT22;2256;48.740;9.106;2023-10-13T07:34:06;19.00;91.50
4487;DHT22;2256;48.740;9.106;2023-10-13T07:36:39;19.10;91.60
4487;DHT22;2256;48.740;9.106;2023-10-13T07:39:06;19.30;91.30
4487;DHT22;2256;48.740;9.106;2023-10-13T07:41:47;19.40;91.30
4487;DHT22;2256;48.740;9.106;2023-10-13T07:44:19;19.50;91.20
4487;DHT22;2256;48.740;9.106;2023-10-13T07:46:51;19.50;91.20
4487;DHT22;2256;48.740;9.106;2023-10-13T07:51:57;19.70;90.80
4487;DHT22;2256;48.740;9.106;2023-10-13T07:54:26;19.80;90.40
4487;DHT22;2256;48.740;9.106;2023-10-13T07:56:53;19.80;90.40
4487;DHT22;2256;48.740;9.106;2023-10-13T07:59:22;20.10;90.00
4487;DHT22;2256;48.740;9.106;2023-10-13T08:01:49;20.10;89.40
4487;DHT22;2256;48.740;9.106;2023-10-13T08:04:37;20.20;89.30
4487;DHT22;2256;48.740;9.106;2023-10-13T08:07:04;20.20;89.30
4487;DHT22;2256;48.740;9.106;2023-10-13T08:09:39;20.20;89.30
4487;DHT22;2256;48.740;9.106;2023-10-13T08:12:07;20.40;89.10
4487;DHT22;2256;48.740;9.106;2023-10-13T08:14:39;20.50;88.20
4487;DHT22;2256;48.740;9.106;2023-10-13T08:17:07;20.50;87.80
4487;DHT22;2256;48.740;9.106;2023-10-13T08:19:36;20.70;87.40
4487;DHT22;2256;48.740;9.106;2023-10-13T08:22:08;21.00;86.60
4487;DHT22;2256;48.740;9.106;2023-10-13T08:24:50;21.20;86.30
4487;DHT22;2256;48.740;9.106;2023-10-13T08:27:40;21.50;87.00
4487;DHT22;2256;48.740;9.106;2023-10-13T08:30:32;21.80;87.20
4487;DHT22;2256;48.740;9.106;2023-10-13T08:33:17;23.10;86.40
4487;DHT22;2256;48.740;9.106;2023-10-13T08:35:44;25.20;82.80
4487;DHT22;2256;48.740;9.106;2023-10-13T08:38:31;26.50;79.20
4487;DHT22;2256;48.740;9.106;2023-10-13T08:41:16;27.60;77.30
4487;DHT22;2256;48.740;9.106;2023-10-13T08:44:02;28.80;74.60
4487;DHT22;2256;48.740;9.106;2023-10-13T08:46:37;29.90;72.50
4487;DHT22;2256;48.740;9.106;2023-10-13T08:49:22;30.40;70.60
4487;DHT22;2256;48.740;9.106;2023-10-13T08:51:54;30.60;69.80
4487;DHT22;2256;48.740;9.106;2023-10-13T08:54:35;31.30;68.50
4487;DHT22;2256;48.740;9.106;2023-10-13T08:57:05;31.50;67.90
4487;DHT22;2256;48.740;9.106;2023-10-13T08:59:58;31.40;67.30
4487;DHT22;2256;48.740;9.106;2023-10-13T09:02:45;32.10;65.90
4487;DHT22;2256;48.740;9.106;2023-10-13T09:05:46;31.90;63.30
4487;DHT22;2256;48.740;9.106;2023-10-13T09:08:27;31.50;63.50
4487;DHT22;2256;48.740;9.106;2023-10-13T09:11:02;31.60;62.40
4487;DHT22;2256;48.740;9.106;2023-10-13T09:13:37;31.20;62.30
4487;DHT22;2256;48.740;9.106;2023-10-13T09:16:10;31.50;63.10
4487;DHT22;2256;48.740;9.106;2023-10-13T09:18:44;32.00;61.50
4487;DHT22;2256;48.740;9.106;2023-10-13T09:21:15;31.60;61.40
4487;DHT22;2256;48.740;9.106;2023-10-13T09:24:12;31.40;61.50
4487;DHT22;2256;48.740;9.106;2023-10-13T09:26:53;31.00;61.60
4487;DHT22;2256;48.740;9.106;2023-10-13T09:29:22;30.20;62.40
4487;DHT22;2256;48.740;9.106;2023-10-13T09:31:59;29.90;63.30
4487;DHT22;2256;48.740;9.106;2023-10-13T09:34:27;29.10;64.30
4487;DHT22;2256;48.740;9.106;2023-10-13T09:36:57;28.40;65.10
4487;DHT22;2256;48.740;9.106;2023-10-13T09:39:27;28.10;65.80
4487;DHT22;2256;48.740;9.106;2023-10-13T09:42:01;27.80;66.10
4487;DHT22;2256;48.740;9.106;2023-10-13T09:44:27;27.60;67.10
4487;DHT22;2256;48.740;9.106;2023-10-13T09:47:00;27.30;67.30
4487;DHT22;2256;48.740;9.106;2023-10-13T09:49:38;26.70;68.30
4487;DHT22;2256;48.740;9.106;2023-10-13T09:52:17;26.50;69.40
4487;DHT22;2256;48.740;9.106;2023-10-13T09:55:03;26.40;69.10
4487;DHT22;2256;48.740;9.106;2023-10-13T09:57:37;26.10;69.50
4487;DHT22;2256;48.740;9.106;2023-10-13T10:00:12;26.00;69.40
4487;DHT22;2256;48.740;9.106;2023-10-13T10:03:02;25.90;69.40
4487;DHT22;2256;48.740;9.106;2023-10-13T10:05:42;25.80;69.20
4487;DHT22;2256;48.740;9.106;2023-10-13T10:08:24;25.70;68.70
4487;DHT22;2256;48.740;9.106;2023-10-13T10:11:04;25.70;69.60
4487;DHT22;2256;48.740;9.106;2023-10-13T10:13:38;25.60;68.90
4487;DHT22;2256;48.740;9.106;2023-10-13T10:16:10;25.80;69.10
4487;DHT22;2256;48.740;9.106;2023-10-13T10:18:41;25.80;68.80
4487;DHT22;2256;48.740;9.106;2023-10-13T10:21:09;26.00;69.40
4487;DHT22;2256;48.740;9.106;2023-10-13T10:23:37;26.10;69.50
4487;DHT22;2256;48.740;9.106;2023-10-13T10:26:11;26.20;68.70
4487;DHT22;2256;48.740;9.106;2023-10-13T10:28:37;26.40;68.10
4487;DHT22;2256;48.740;9.106;2023-10-13T10:31:07;26.60;68.30
4487;DHT22;2256;48.740;9.106;2023-10-13T10:33:38;26.70;67.10
4487;DHT22;2256;48.740;9.106;2023-10-13T10:36:05;26.60;66.80
4487;DHT22;2256;48.740;9.106;2023-10-13T10:38:51;26.70;67.90
4487;DHT22;2256;48.740;9.106;2023-10-13T10:41:25;26.60;67.50
4487;DHT22;2256;48.740;9.106;2023-10-13T10:43:55;26.40;68.00
4487;DHT22;2256;48.740;9.106;2023-10-13T10:46:26;26.40;68.90
4487;DHT22;2256;48.740;9.106;2023-10-13T10:48:55;26.50;67.70
4487;DHT22;2256;48.740;9.106;2023-10-13T10:51:27;26.70;68.30
4487;DHT22;2256;48.740;9.106;2023-10-13T10:53:59;26.80;67.70
4487;DHT22;2256;48.740;9.106;2023-10-13T10:56:37;27.00;67.80
4487;DHT22;2256;48.740;9.106;2023-10-13T10:59:05;27.00;67.30
4487;DHT22;2256;48.740;9.106;2023-10-13T11:01:43;27.10;66.80
4487;DHT22;2256;48.740;9.106;2023-10-13T11:04:13;26.80;67.40
4487;DHT22;2256;48.740;9.106;2023-10-13T11:06:45;26.80;67.30
4487;DHT22;2256;48.740;9.106;2023-10-13T11:09:14;26.80;67.80
4487;DHT22;2256;48.740;9.106;2023-10-13T11:11:57;27.00;68.60
4487;DHT22;2256;48.740;9.106;2023-10-13T11:14:40;27.00;67.00
4487;DHT22;2256;48.740;9.106;2023-10-13T11:17:07;27.10;67.40
4487;DHT22;2256;48.740;9.106;2023-10-13T11:19:44;27.20;66.60
4487;DHT22;2256;48.740;9.106;2023-10-13T11:22:11;27.10;66.70
4487;DHT22;2256;48.740;9.106;2023-10-13T11:24:56;27.00;66.50
4487;DHT22;2256;48.740;9.106;2023-10-13T11:27:28;26.90;66.50
4487;DHT22;2256;48.740;9.106;2023-10-13T11:30:10;26.90;66.60
4487;DHT22;2256;48.740;9.106;2023-10-13T11:32:40;26.90;66.60
4487;DHT22;2256;48.740;9.106;2023-10-13T11:35:08;26.90;66.50
4487;DHT22;2256;48.740;9.106;2023-10-13T11:37:46;26.80;66.80
4487;DHT22;2256;48.740;9.106;2023-10-13T11:40:23;26.90;67.10
4487;DHT22;2256;48.740;9.106;2023-10-13T11:43:04;27.00;66.30
4487;DHT22;2256;48.740;9.106;2023-10-13T11:45:30;27.10;66.40
4487;DHT22;2256;48.740;9.106;2023-10-13T11:47:57;27.20;66.80
4487;DHT22;2256;48.740;9.106;2023-10-13T11:50:26;27.20;66.10
4487;DHT22;2256;48.740;9.106;2023-10-13T11:52:59;27.30;66.10
4487;DHT22;2256;48.740;9.106;2023-10-13T11:55:27;27.20;66.30
4487;DHT22;2256;48.740;9.106;2023-10-13T11:57:55;27.40;66.50
4487;DHT22;2256;48.740;9.106;2023-10-13T12:00:24;27.50;66.10
4487;DHT22;2256;48.740;9.106;2023-10-13T12:03:12;27.60;65.80
4487;DHT22;2256;48.740;9.106;2023-10-13T12:05:56;27.60;64.80
4487;DHT22;2256;48.740;9.106;2023-10-13T12:08:44;27.70;65.10
4487;DHT22;2256;48.740;9.106;2023-10-13T12:11:16;27.60;65.00
4487;DHT22;2256;48.740;9.106;2023-10-13T12:13:58;27.60;65.10
4487;DHT22;2256;48.740;9.106;2023-10-13T12:16:37;27.70;64.80
4487;DHT22;2256;48.740;9.106;2023-10-13T12:19:03;27.60;64.80
4487;DHT22;2256;48.740;9.106;2023-10-13T12:21:35;27.60;64.70
4487;DHT22;2256;48.740;9.106;2023-10-13T12:24:04;27.70;64.90
4487;DHT22;2256;48.740;9.106;2023-10-13T12:26:38;27.70;64.80
4487;DHT22;2256;48.740;9.106;2023-10-13T12:29:07;27.80;64.60
4487;DHT22;2256;48.740;9.106;2023-10-13T12:31:44;27.90;64.40
4487;DHT22;2256;48.740;9.106;2023-10-13T12:34:18;27.90;64.70
4487;DHT22;2256;48.740;9.106;2023-10-13T12:37:04;27.90;65.60
4487;DHT22;2256;48.740;9.106;2023-10-13T12:39:52;28.00;64.20
4487;DHT22;2256;48.740;9.106;2023-10-13T12:42:37;28.00;63.80
4487;DHT22;2256;48.740;9.106;2023-10-13T12:45:22;27.90;64.10
4487;DHT22;2256;48.740;9.106;2023-10-13T12:48:06;28.00;64.40
4487;DHT22;2256;48.740;9.106;2023-10-13T12:50:50;28.10;63.40
4487;DHT22;2256;48.740;9.106;2023-10-13T12:53:33;28.20;63.60
4487;DHT22;2256;48.740;9.106;2023-10-13T12:55:59;28.20;63.00
4487;DHT22;2256;48.740;9.106;2023-10-13T12:58:30;28.30;63.70
4487;DHT22;2256;48.740;9.106;2023-10-13T13:00:59;28.30;63.60
4487;DHT22;2256;48.740;9.106;2023-10-13T13:03:31;28.50;63.20
4487;DHT22;2256;48.740;9.106;2023-10-13T13:05:58;28.60;63.50
4487;DHT22;2256;48.740;9.106;2023-10-13T13:08:28;28.80;63.30
4487;DHT22;2256;48.740;9.106;2023-10-13T13:11:01;28.90;61.70
4487;DHT22;2256;48.740;9.106;2023-10-13T13:13:28;28.90;61.20
4487;DHT22;2256;48.740;9.106;2023-10-13T13:15:56;28.90;60.30
4487;DHT22;2256;48.740;9.106;2023-10-13T13:18:23;28.80;59.90
4487;DHT22;2256;48.740;9.106;2023-10-13T13:20:50;28.80;60.20
4487;DHT22;2256;48.740;9.106;2023-10-13T13:23:20;28.90;60.10
4487;DHT22;2256;48.740;9.106;2023-10-13T13:25:51;28.90;59.80
4487;DHT22;2256;48.740;9.106;2023-10-13T13:28:18;28.80;60.00
4487;DHT22;2256;48.740;9.106;2023-10-13T13:30:45;28.70;59.00
4487;DHT22;2256;48.740;9.106;2023-10-13T13:33:17;28.50;59.30
4487;DHT22;2256;48.740;9.106;2023-10-13T13:35:52;28.30;58.70
4487;DHT22;2256;48.740;9.106;2023-10-13T13:38:19;28.30;58.70
4487;DHT22;2256;48.740;9.106;2023-10-13T13:40:52;28.10;59.00
4487;DHT22;2256;48.740;9.106;2023-10-13T13:43:20;28.00;59.30
4487;DHT22;2256;48.740;9.106;2023-10-13T13:46:03;28.00;59.30
4487;DHT22;2256;48.740;9.106;2023-10-13T13:48:36;28.10;59.60
4487;DHT22;2256;48.740;9.106;2023-10-13T13:51:03;28.20;59.30
4487;DHT22;2256;48.740;9.106;2023-10-13T13:53:31;28.30;59.20
4487;DHT22;2256;48.740;9.106;2023-10-13T13:56:01;28.30;59.50
4487;DHT22;2256;48.740;9.106;2023-10-13T13:58:28;28.40;59.50
4487;DHT22;2256;48.740;9.106;2023-10-13T14:01:00;28.40;59.50
4487;DHT22;2256;48.740;9.106;2023-10-13T14:03:38;28.40;59.50
4487;DHT22;2256;48.740;9.106;2023-10-13T14:06:10;28.40;60.20
4487;DHT22;2256;48.740;9.106;2023-10-13T14:08:44;28.40;60.50
4487;DHT22;2256;48.740;9.106;2023-10-13T14:11:14;28.40;59.90
4487;DHT22;2256;48.740;9.106;2023-10-13T14:13:48;28.40;59.70
4487;DHT22;2256;48.740;9.106;2023-10-13T14:16:15;28.50;59.80
4487;DHT22;2256;48.740;9.106;2023-10-13T14:18:48;28.40;59.30
4487;DHT22;2256;48.740;9.106;2023-10-13T14:21:15;28.40;58.60
4487;DHT22;2256;48.740;9.106;2023-10-13T14:23:44;28.40;58.70
4487;DHT22;2256;48.740;9.106;2023-10-13T14:26:12;28.20;58.80
4487;DHT22;2256;48.740;9.106;2023-10-13T14:28:39;28.10;59.20
4487;DHT22;2256;48.740;9.106;2023-10-13T14:31:16;28.10;59.30
4487;DHT22;2256;48.740;9.106;2023-10-13T14:33:46;28.10;59.10
4487;DHT22;2256;48.740;9.106;2023-10-13T14:36:13;28.10;58.80
4487;DHT22;2256;48.740;9.106;2023-10-13T14:38:46;28.10;58.30
4487;DHT22;2256;48.740;9.106;2023-10-13T14:41:15;28.10;58.90
4487;DHT22;2256;48.740;9.106;2023-10-13T14:43:43;28.10;59.00
4487;DHT22;2256;48.740;9.106;2023-10-13T14:46:13;28.00;58.10
4487;DHT22;2256;48.740;9.106;2023-10-13T14:48:40;28.00;58.40
4487;DHT22;2256;48.740;9.106;2023-10-13T14:51:10;28.00;58.50
4487;DHT22;2256;48.740;9.106;2023-10-13T14:53:39;28.00;58.00
4487;DHT22;2256;48.740;9.106;2023-10-13T14:56:10;28.00;58.10
4487;DHT22;2256;48.740;9.106;2023-10-13T14:58:37;27.90;57.50
4487;DHT22;2256;48.740;9.106;2023-10-13T15:01:11;27.90;56.40
4487;DHT22;2256;48.740;9.106;2023-10-13T15:03:39;27.80;56.40
4487;DHT22;2256;48.740;9.106;2023-10-13T15:06:06;27.80;56.30
4487;DHT22;2256;48.740;9.106;2023-10-13T15:08:34;27.60;56.50
4487;DHT22;2256;48.740;9.106;2023-10-13T15:11:08;27.60;56.50
4487;DHT22;2256;48.740;9.106;2023-10-13T15:13:38;27.60;56.60
4487;DHT22;2256;48.740;9.106;2023-10-13T15:16:13;27.60;56.40
4487;DHT22;2256;48.740;9.106;2023-10-13T15:18:40;27.50;56.70
4487;DHT22;2256;48.740;9.106;2023-10-13T15:21:07;27.40;56.60
4487;DHT22;2256;48.740;9.106;2023-10-13T15:23:36;27.30;57.40
4487;DHT22;2256;48.740;9.106;2023-10-13T15:26:07;27.20;56.90
4487;DHT22;2256;48.740;9.106;2023-10-13T15:28:36;27.20;55.90
4487;DHT22;2256;48.740;9.106;2023-10-13T15:31:10;27.10;54.80
4487;DHT22;2256;48.740;9.106;2023-10-13T15:33:51;27.10;55.60
4487;DHT22;2256;48.740;9.106;2023-10-13T15:36:21;27.00;55.50
4487;DHT22;2256;48.740;9.106;2023-10-13T15:38:50;26.90;56.00
4487;DHT22;2256;48.740;9.106;2023-10-13T15:41:27;26.80;56.30
4487;DHT22;2256;48.740;9.106;2023-10-13T15:43:55;26.90;55.60
4487;DHT22;2256;48.740;9.106;2023-10-13T15:46:22;26.70;56.00
4487;DHT22;2256;48.740;9.106;2023-10-13T15:48:50;26.60;56.10
4487;DHT22;2256;48.740;9.106;2023-10-13T15:51:17;26.60;55.80
4487;DHT22;2256;48.740;9.106;2023-10-13T15:53:44;26.40;56.30
4487;DHT22;2256;48.740;9.106;2023-10-13T15:56:14;26.40;56.30
4487;DHT22;2256;48.740;9.106;2023-10-13T15:58:42;26.30;56.30
4487;DHT22;2256;48.740;9.106;2023-10-13T16:01:11;26.20;56.50
4487;DHT22;2256;48.740;9.106;2023-10-13T16:03:38;26.10;56.00
4487;DHT22;2256;48.740;9.106;2023-10-13T16:06:06;26.00;56.30
4487;DHT22;2256;48.740;9.106;2023-10-13T16:08:36;25.90;56.20
4487;DHT22;2256;48.740;9.106;2023-10-13T16:11:04;25.80;56.50
4487;DHT22;2256;48.740;9.106;2023-10-13T16:13:34;25.70;56.80
4487;DHT22;2256;48.740;9.106;2023-10-13T16:16:02;25.60;56.40
4487;DHT22;2256;48.740;9.106;2023-10-13T16:18:29;25.50;57.10
4487;DHT22;2256;48.740;9.106;2023-10-13T16:20:59;25.30;57.40
4487;DHT22;2256;48.740;9.106;2023-10-13T16:23:25;25.20;57.40
4487;DHT22;2256;48.740;9.106;2023-10-13T16:25:54;25.10;57.60
4487;DHT22;2256;48.740;9.106;2023-10-13T16:28:22;25.00;57.80
4487;DHT22;2256;48.740;9.106;2023-10-13T16:30:51;25.00;58.10
4487;DHT22;2256;48.740;9.106;2023-10-13T16:33:19;24.80;58.20
4487;DHT22;2256;48.740;9.106;2023-10-13T16:35:46;24.70;58.60
4487;DHT22;2256;48.740;9.106;2023-10-13T16:38:13;24.50;58.90
4487;DHT22;2256;48.740;9.106;2023-10-13T16:40:40;24.40;59.20
4487;DHT22;2256;48.740;9.106;2023-10-13T16:43:07;24.40;59.50
4487;DHT22;2256;48.740;9.106;2023-10-13T16:45:35;24.20;59.80